Time;durP1;ratioP1;P1;durP2;ratioP2;P2;SDS_P1;SDS_P2;PMS_P1;PMS_P2;Temp;Humidity;BMP_temperature;BMP_pressure;BME280_temperature;BME280_humidity;BME280_pressure;Samples;Min_cycle;Max_cycle;Signal;HPM_P1;HPM_P2
2021/12/04 00:00:51;;;;;;;8.25;3.20;;;;;;;;;;5094133;28;20380;-65
2021/12/04 00:03:17;;;;;;;5.25;3.15;;;;;;;;;;5103303;28;20023;-64
2021/12/04 00:05:49;;;;;;;5.25;2.70;;;;;;;;;;5112896;28;20031;-63
2021/12/04 00:08:15;;;;;;;4.13;3.00;;;;;;;;;;5114242;28;20051;-64
2021/12/04 00:10:41;;;;;;;3.10;2.80;;;;;;;;;;5114291;28;20027;-63
2021/12/04 00:13:07;;;;;;;12.20;2.70;;;;;;;;;;5114043;28;20066;-65
2021/12/04 00:15:33;;;;;;;6.30;2.85;;;;;;;;;;5090509;28;20062;-67
2021/12/04 00:18:00;;;;;;;13.13;3.28;;;;;;;;;;5080265;28;20459;-66
2021/12/04 00:20:30;;;;;;;7.35;3.33;;;;;;;;;;5093358;28;20483;-66
2021/12/04 00:22:58;;;;;;;11.70;2.80;;;;;;;;;;5093578;28;20364;-66
2021/12/04 00:25:25;;;;;;;7.28;3.20;;;;;;;;;;5075030;28;20059;-67
2021/12/04 00:27:51;;;;;;;9.90;3.08;;;;;;;;;;5093142;28;20104;-67
2021/12/04 00:30:17;;;;;;;4.05;2.70;;;;;;;;;;5092821;28;20016;-68
2021/12/04 00:32:53;;;;;;;14.00;3.05;;;;;;;;;;5081989;28;20089;-67
2021/12/04 00:35:34;;;;;;;5.90;2.60;;;;;;;;;;5079012;28;20016;-67
2021/12/04 00:43:21;;;;;;;6.95;2.92;;;;;;;;;;5082264;28;20492;-67
2021/12/04 00:51:16;;;;;;;4.55;3.08;;;;;;;;;;5077090;28;20093;-67
2021/12/04 00:53:42;;;;;;;4.00;3.03;;;;;;;;;;5072940;28;20021;-66
2021/12/04 00:56:08;;;;;;;4.30;2.90;;;;;;;;;;5072426;28;20032;-67
2021/12/04 00:58:34;;;;;;;6.15;2.72;;;;;;;;;;5072539;28;20056;-67
2021/12/04 01:01:00;;;;;;;4.22;3.05;;;;;;;;;;5072843;28;20024;-67
2021/12/04 01:03:26;;;;;;;5.57;3.00;;;;;;;;;;5054734;28;20082;-67
2021/12/04 01:05:52;;;;;;;6.28;2.80;;;;;;;;;;5072600;28;20032;-67
2021/12/04 01:08:19;;;;;;;3.83;2.90;;;;;;;;;;5072782;28;20021;-67
2021/12/04 01:10:45;;;;;;;4.22;2.72;;;;;;;;;;5073069;28;20048;-67
2021/12/04 01:13:11;;;;;;;4.68;2.97;;;;;;;;;;5072667;28;20068;-66
2021/12/04 01:15:41;;;;;;;4.55;3.50;;;;;;;;;;5072534;28;20020;-67
2021/12/04 01:18:08;;;;;;;3.67;2.90;;;;;;;;;;5072364;28;20468;-67
2021/12/04 01:20:34;;;;;;;3.30;3.00;;;;;;;;;;5072723;28;20029;-67
2021/12/04 01:23:00;;;;;;;7.40;3.65;;;;;;;;;;5072468;28;20170;-67
2021/12/04 01:25:26;;;;;;;5.18;3.22;;;;;;;;;;5101377;28;20501;-67
2021/12/04 01:27:52;;;;;;;5.82;3.42;;;;;;;;;;5112896;28;20717;-67
2021/12/04 01:30:18;;;;;;;9.45;3.28;;;;;;;;;;5113227;28;20427;-67
2021/12/04 01:32:44;;;;;;;5.70;3.22;;;;;;;;;;5112948;28;20046;-67
2021/12/04 01:35:10;;;;;;;7.82;3.63;;;;;;;;;;5112982;28;20359;-67
2021/12/04 01:37:36;;;;;;;9.30;4.00;;;;;;;;;;5112687;28;20046;-67
2021/12/04 01:40:02;;;;;;;12.68;3.80;;;;;;;;;;5112959;28;20479;-67
2021/12/04 01:42:31;;;;;;;3.85;3.10;;;;;;;;;;5109430;28;20044;-67
2021/12/04 01:44:57;;;;;;;5.20;3.70;;;;;;;;;;5104871;28;20016;-67
2021/12/04 01:47:23;;;;;;;5.55;3.22;;;;;;;;;;5092419;28;20104;-67
2021/12/04 01:49:52;;;;;;;9.32;3.78;;;;;;;;;;5092517;28;20020;-67
2021/12/04 01:52:18;;;;;;;6.85;3.92;;;;;;;;;;5072036;28;20029;-67
2021/12/04 01:54:45;;;;;;;6.00;3.97;;;;;;;;;;5072442;28;20459;-66
2021/12/04 01:57:13;;;;;;;6.97;4.20;;;;;;;;;;5072386;28;20028;-67
2021/12/04 01:59:39;;;;;;;7.97;4.28;;;;;;;;;;5089397;28;20019;-67
2021/12/04 02:02:05;;;;;;;9.80;4.53;;;;;;;;;;5112689;28;20024;-66
2021/12/04 02:04:31;;;;;;;6.65;4.88;;;;;;;;;;5112459;28;20503;-67
2021/12/04 02:06:57;;;;;;;18.00;5.07;;;;;;;;;;5112991;28;20027;-66
2021/12/04 02:09:23;;;;;;;9.38;5.57;;;;;;;;;;5116590;28;20110;-67
2021/12/04 02:11:49;;;;;;;13.35;5.68;;;;;;;;;;5116325;28;20100;-67
2021/12/04 02:14:15;;;;;;;9.57;5.40;;;;;;;;;;5114477;28;20023;-67
2021/12/04 02:16:41;;;;;;;12.60;5.72;;;;;;;;;;5116343;28;20042;-67
2021/12/04 02:19:07;;;;;;;10.43;5.25;;;;;;;;;;5116087;28;20408;-67
2021/12/04 02:21:33;;;;;;;8.95;5.35;;;;;;;;;;5116391;28;20045;-66
2021/12/04 02:23:59;;;;;;;11.13;5.50;;;;;;;;;;5116215;28;20744;-66
2021/12/04 02:26:25;;;;;;;7.50;5.50;;;;;;;;;;5116149;28;20016;-67
2021/12/04 02:28:51;;;;;;;9.20;5.47;;;;;;;;;;5115753;28;20031;-67
2021/12/04 02:31:18;;;;;;;9.80;6.68;;;;;;;;;;5115947;28;20020;-66
2021/12/04 02:33:44;;;;;;;8.35;6.13;;;;;;;;;;5114378;28;20047;-66
2021/12/04 02:36:10;;;;;;;7.38;5.45;;;;;;;;;;5115841;28;20024;-68
2021/12/04 02:38:36;;;;;;;11.57;6.57;;;;;;;;;;5115670;28;20099;-66
2021/12/04 02:41:03;;;;;;;12.52;6.85;;;;;;;;;;5115619;28;20102;-66
2021/12/04 02:43:33;;;;;;;9.15;6.00;;;;;;;;;;5115602;28;20024;-66
2021/12/04 02:45:59;;;;;;;9.90;6.15;;;;;;;;;;5099320;28;20024;-66
2021/12/04 02:48:25;;;;;;;9.55;6.68;;;;;;;;;;5076908;28;20085;-66
2021/12/04 02:50:51;;;;;;;11.57;7.07;;;;;;;;;;5104212;28;20020;-66
2021/12/04 02:53:17;;;;;;;10.38;6.60;;;;;;;;;;5095318;28;20043;-67
2021/12/04 02:55:44;;;;;;;9.73;6.80;;;;;;;;;;5094874;28;20375;-66
2021/12/04 02:58:10;;;;;;;13.18;6.93;;;;;;;;;;5094928;28;20483;-67
2021/12/04 03:00:41;;;;;;;10.20;6.93;;;;;;;;;;5094796;28;20024;-67
2021/12/04 03:03:07;;;;;;;9.88;7.13;;;;;;;;;;5094960;28;20031;-66
2021/12/04 03:05:33;;;;;;;17.77;7.50;;;;;;;;;;5094600;28;20032;-67
2021/12/04 03:07:59;;;;;;;11.52;7.78;;;;;;;;;;5115272;28;20024;-67
2021/12/04 03:10:26;;;;;;;12.32;7.63;;;;;;;;;;5115383;28;20034;-67
2021/12/04 03:12:53;;;;;;;11.20;7.22;;;;;;;;;;5115255;28;20031;-67
2021/12/04 03:15:21;;;;;;;15.10;7.93;;;;;;;;;;5114916;28;20019;-67
2021/12/04 03:17:47;;;;;;;12.07;7.72;;;;;;;;;;5114538;28;20490;-66
2021/12/04 03:20:13;;;;;;;12.10;7.50;;;;;;;;;;5114870;28;20495;-67
2021/12/04 03:22:44;;;;;;;10.48;7.57;;;;;;;;;;5114729;28;20059;-66
2021/12/04 03:25:10;;;;;;;13.35;7.22;;;;;;;;;;5114839;28;20016;-67
2021/12/04 03:27:38;;;;;;;11.57;7.45;;;;;;;;;;5115235;28;20024;-67
2021/12/04 03:30:08;;;;;;;14.25;7.93;;;;;;;;;;5114834;28;20019;-67
2021/12/04 03:35:21;;;;;;;13.82;7.43;;;;;;;;;;5113300;28;20112;-67
2021/12/04 03:43:16;;;;;;;16.13;7.38;;;;;;;;;;5114861;28;20061;-67
2021/12/04 03:45:45;;;;;;;9.82;6.93;;;;;;;;;;5100226;28;20024;-67
2021/12/04 03:50:56;;;;;;;13.35;7.15;;;;;;;;;;5102005;28;20034;-67
2021/12/04 03:53:22;;;;;;;12.05;7.35;;;;;;;;;;5093909;28;20077;-67
2021/12/04 03:55:49;;;;;;;15.65;7.72;;;;;;;;;;5094070;28;20107;-67
2021/12/04 03:58:15;;;;;;;11.40;7.03;;;;;;;;;;5094077;28;20032;-67
2021/12/04 04:00:41;;;;;;;9.40;6.78;;;;;;;;;;5093807;28;20035;-67
2021/12/04 04:03:07;;;;;;;12.75;7.72;;;;;;;;;;5093680;28;20107;-67
2021/12/04 04:05:33;;;;;;;11.18;6.95;;;;;;;;;;5093782;28;20111;-67
2021/12/04 04:07:59;;;;;;;10.27;6.97;;;;;;;;;;5093575;28;20020;-67
2021/12/04 04:10:25;;;;;;;11.70;7.75;;;;;;;;;;5093552;28;20059;-66
2021/12/04 04:12:51;;;;;;;12.90;6.68;;;;;;;;;;5093593;28;20035;-67
2021/12/04 04:15:17;;;;;;;11.20;7.13;;;;;;;;;;5093764;28;20016;-67
2021/12/04 04:17:44;;;;;;;14.23;7.20;;;;;;;;;;5093401;28;20060;-67
2021/12/04 04:20:19;;;;;;;11.65;7.03;;;;;;;;;;5097595;28;20055;-65
2021/12/04 04:22:47;;;;;;;11.48;7.10;;;;;;;;;;5112489;28;20046;-66
2021/12/04 04:25:14;;;;;;;11.80;7.20;;;;;;;;;;5113653;28;20011;-66
2021/12/04 04:27:40;;;;;;;13.82;7.10;;;;;;;;;;5113816;28;20030;-66
2021/12/04 04:30:10;;;;;;;11.18;6.68;;;;;;;;;;5113224;28;20026;-66
2021/12/04 04:32:36;;;;;;;13.60;7.63;;;;;;;;;;5113780;28;20089;-66
2021/12/04 04:35:10;;;;;;;12.75;6.88;;;;;;;;;;5113922;28;20471;-66
2021/12/04 04:40:40;;;;;;;15.35;8.13;;;;;;;;;;5113742;28;20096;-65
2021/12/04 05:10:19;;;;;;;11.68;6.70;;;;;;;;;;5106544;28;20119;-66
2021/12/04 05:13:00;;;;;;;15.48;6.25;;;;;;;;;;5112990;28;20058;-66
2021/12/04 05:20:49;;;;;;;12.02;6.43;;;;;;;;;;5113436;28;20024;-67
2021/12/04 05:23:15;;;;;;;11.30;6.70;;;;;;;;;;5113208;28;20120;-67
2021/12/04 05:25:41;;;;;;;12.02;6.70;;;;;;;;;;5113077;28;20438;-67
2021/12/04 05:28:08;;;;;;;11.68;6.78;;;;;;;;;;5113136;28;20047;-67
2021/12/04 05:30:37;;;;;;;12.07;6.88;;;;;;;;;;5113124;28;20391;-67
2021/12/04 05:33:04;;;;;;;10.40;5.88;;;;;;;;;;5112533;28;20105;-67
2021/12/04 05:35:30;;;;;;;14.55;6.60;;;;;;;;;;5112839;28;20766;-67
2021/12/04 05:37:56;;;;;;;9.32;6.10;;;;;;;;;;5113131;28;20579;-66
2021/12/04 05:40:22;;;;;;;13.20;6.22;;;;;;;;;;5111554;28;20027;-67
2021/12/04 05:42:48;;;;;;;10.93;6.68;;;;;;;;;;5116108;28;20043;-67
2021/12/04 05:45:18;;;;;;;16.45;6.97;;;;;;;;;;5098973;28;20074;-66
2021/12/04 05:47:58;;;;;;;9.88;6.00;;;;;;;;;;5076350;28;20032;-67
2021/12/04 05:55:41;;;;;;;9.60;6.10;;;;;;;;;;5096709;28;20560;-66
2021/12/04 05:58:07;;;;;;;14.30;6.88;;;;;;;;;;5096214;28;20116;-67
2021/12/04 06:00:33;;;;;;;12.40;6.30;;;;;;;;;;5096177;28;20024;-66
2021/12/04 06:02:59;;;;;;;9.02;6.30;;;;;;;;;;5078138;28;20036;-66
2021/12/04 06:05:25;;;;;;;10.35;6.38;;;;;;;;;;5096136;28;20345;-66
2021/12/04 06:07:51;;;;;;;8.70;5.80;;;;;;;;;;5096141;28;20107;-66
2021/12/04 06:10:17;;;;;;;15.27;7.03;;;;;;;;;;5101556;28;20099;-67
2021/12/04 06:12:43;;;;;;;13.63;6.40;;;;;;;;;;5116350;28;20398;-66
2021/12/04 06:15:09;;;;;;;10.35;6.47;;;;;;;;;;5116377;28;20042;-66
2021/12/04 06:17:35;;;;;;;18.80;6.57;;;;;;;;;;5114998;28;20027;-66
2021/12/04 06:22:45;;;;;;;14.98;6.32;;;;;;;;;;5116151;28;20063;-67
2021/12/04 06:25:13;;;;;;;11.38;6.30;;;;;;;;;;5116093;28;20051;-67
2021/12/04 06:27:39;;;;;;;14.73;6.95;;;;;;;;;;5112204;28;20337;-65
2021/12/04 06:30:07;;;;;;;13.63;7.03;;;;;;;;;;5096227;28;20032;-67
2021/12/04 06:32:36;;;;;;;14.07;7.18;;;;;;;;;;5095765;28;20100;-64
2021/12/04 06:35:03;;;;;;;14.57;7.30;;;;;;;;;;5095846;28;20123;-66
2021/12/04 06:37:29;;;;;;;10.57;7.15;;;;;;;;;;5091478;28;20099;-66
2021/12/04 06:39:55;;;;;;;11.65;7.15;;;;;;;;;;5092707;28;20055;-66
2021/12/04 06:42:21;;;;;;;9.98;6.95;;;;;;;;;;5101205;28;20048;-66
2021/12/04 06:44:46;;;;;;;16.40;7.05;;;;;;;;;;5093345;28;20024;-66
2021/12/04 06:47:12;;;;;;;12.95;7.50;;;;;;;;;;5075675;28;20027;-65
2021/12/04 06:49:42;;;;;;;11.23;7.18;;;;;;;;;;5075191;28;20031;-65
2021/12/04 06:52:14;;;;;;;9.52;7.22;;;;;;;;;;5094160;28;20039;-66
2021/12/04 06:54:44;;;;;;;9.90;6.63;;;;;;;;;;5084113;28;20063;-65
2021/12/04 06:57:12;;;;;;;13.23;7.40;;;;;;;;;;5074843;28;20024;-66
2021/12/04 06:59:40;;;;;;;13.45;7.40;;;;;;;;;;5080846;28;20070;-66
2021/12/04 07:02:06;;;;;;;10.77;6.72;;;;;;;;;;5062725;28;20032;-66
2021/12/04 07:04:35;;;;;;;13.25;7.15;;;;;;;;;;5080732;28;20082;-66
2021/12/04 07:07:01;;;;;;;10.52;6.72;;;;;;;;;;5085455;28;20380;-66
2021/12/04 07:09:27;;;;;;;10.55;6.78;;;;;;;;;;5088160;28;20028;-66
2021/12/04 07:11:53;;;;;;;12.52;6.70;;;;;;;;;;5091491;28;20029;-65
2021/12/04 07:14:19;;;;;;;14.10;7.30;;;;;;;;;;5086061;28;20461;-65
2021/12/04 07:16:46;;;;;;;9.57;6.35;;;;;;;;;;5094928;28;20043;-66
2021/12/04 07:19:13;;;;;;;10.27;6.20;;;;;;;;;;5096939;28;20082;-65
2021/12/04 07:21:39;;;;;;;12.10;6.90;;;;;;;;;;5096563;28;20092;-66
2021/12/04 07:24:05;;;;;;;12.30;6.95;;;;;;;;;;5094519;28;20460;-66
2021/12/04 07:26:31;;;;;;;10.13;6.88;;;;;;;;;;5098219;28;20040;-66
2021/12/04 07:28:57;;;;;;;10.43;7.07;;;;;;;;;;5094274;28;20024;-65
2021/12/04 07:31:23;;;;;;;24.80;7.47;;;;;;;;;;5077204;28;20023;-64
2021/12/04 07:33:50;;;;;;;12.65;7.63;;;;;;;;;;5095869;28;20055;-67
2021/12/04 07:36:16;;;;;;;28.60;8.77;;;;;;;;;;5076996;28;20046;-71
2021/12/04 07:38:43;;;;;;;20.35;8.75;;;;;;;;;;5094435;28;20470;-66
2021/12/04 07:41:10;;;;;;;17.02;8.73;;;;;;;;;;5092963;28;20024;-66
2021/12/04 07:43:36;;;;;;;22.38;8.90;;;;;;;;;;5114644;28;20106;-66
2021/12/04 07:46:02;;;;;;;19.50;9.52;;;;;;;;;;5110476;28;20038;-67
2021/12/04 07:48:28;;;;;;;26.20;8.73;;;;;;;;;;5101009;28;20344;-67
2021/12/04 07:50:55;;;;;;;18.30;9.52;;;;;;;;;;5095265;28;20019;-67
2021/12/04 07:53:21;;;;;;;16.73;8.60;;;;;;;;;;5110655;28;20106;-67
2021/12/04 07:55:47;;;;;;;16.40;9.38;;;;;;;;;;5113631;28;20027;-67
2021/12/04 07:58:16;;;;;;;19.33;8.73;;;;;;;;;;5101828;28;20030;-67
2021/12/04 08:00:42;;;;;;;14.20;9.00;;;;;;;;;;5113705;28;20024;-67
2021/12/04 08:03:08;;;;;;;13.18;7.93;;;;;;;;;;5113821;28;20038;-64
2021/12/04 08:05:34;;;;;;;12.80;8.52;;;;;;;;;;5113378;28;20028;-66
2021/12/04 08:08:02;;;;;;;16.70;8.52;;;;;;;;;;5113175;28;20043;-66
2021/12/04 08:10:28;;;;;;;22.10;8.40;;;;;;;;;;5113397;28;20412;-66
2021/12/04 08:12:54;;;;;;;20.60;8.73;;;;;;;;;;5113253;28;20474;-65
2021/12/04 08:15:20;;;;;;;17.27;7.95;;;;;;;;;;5111356;28;20024;-67
2021/12/04 08:17:46;;;;;;;13.38;7.90;;;;;;;;;;5092923;28;20024;-66
2021/12/04 08:20:12;;;;;;;12.02;7.25;;;;;;;;;;5102024;28;20060;-67
2021/12/04 08:22:39;;;;;;;12.48;7.57;;;;;;;;;;5102651;28;20032;-66
2021/12/04 08:25:05;;;;;;;10.52;6.90;;;;;;;;;;5107489;28;20027;-66
2021/12/04 08:27:31;;;;;;;12.45;6.78;;;;;;;;;;5113073;28;20118;-66
2021/12/04 08:29:57;;;;;;;7.78;5.97;;;;;;;;;;5113071;28;20055;-65
2021/12/04 08:32:24;;;;;;;12.20;6.43;;;;;;;;;;5112863;28;20039;-66
2021/12/04 08:34:51;;;;;;;9.60;5.85;;;;;;;;;;5112800;28;20047;-66
2021/12/04 08:37:18;;;;;;;10.60;5.75;;;;;;;;;;5094286;28;20019;-66
2021/12/04 08:39:44;;;;;;;10.15;5.57;;;;;;;;;;5112620;28;20476;-67
2021/12/04 08:42:11;;;;;;;16.98;6.15;;;;;;;;;;5111553;28;20490;-66
2021/12/04 08:44:38;;;;;;;11.40;5.40;;;;;;;;;;5109603;28;20040;-66
2021/12/04 08:47:04;;;;;;;11.25;5.75;;;;;;;;;;5091289;28;20089;-66
2021/12/04 08:49:32;;;;;;;8.35;5.78;;;;;;;;;;5090393;28;20555;-67
2021/12/04 08:51:58;;;;;;;8.93;5.25;;;;;;;;;;5089768;28;20034;-67
2021/12/04 08:54:24;;;;;;;10.50;5.70;;;;;;;;;;5090452;28;20044;-67
2021/12/04 08:56:50;;;;;;;9.65;5.45;;;;;;;;;;5091923;28;20032;-65
2021/12/04 08:59:16;;;;;;;8.27;5.13;;;;;;;;;;5092882;28;20041;-66
2021/12/04 09:01:44;;;;;;;9.27;5.32;;;;;;;;;;5111068;28;20034;-68
2021/12/04 09:04:14;;;;;;;10.18;5.40;;;;;;;;;;5111064;28;20028;-66
2021/12/04 09:06:40;;;;;;;9.35;5.63;;;;;;;;;;5070500;28;20036;-67
2021/12/04 09:09:07;;;;;;;8.75;5.40;;;;;;;;;;5090663;28;20070;-66
2021/12/04 09:11:35;;;;;;;7.03;4.80;;;;;;;;;;5090779;28;20031;-68
2021/12/04 09:14:02;;;;;;;7.22;4.68;;;;;;;;;;5072503;28;20036;-66
2021/12/04 09:16:28;;;;;;;7.85;4.95;;;;;;;;;;5091686;28;20035;-66
2021/12/04 09:18:55;;;;;;;8.80;5.20;;;;;;;;;;5094847;28;20028;-67
2021/12/04 09:21:22;;;;;;;8.63;5.50;;;;;;;;;;5094787;28;20024;-66
2021/12/04 09:23:52;;;;;;;7.00;4.70;;;;;;;;;;5094762;28;20030;-66
2021/12/04 09:26:36;;;;;;;6.00;4.40;;;;;;;;;;5076294;28;20028;-66
2021/12/04 10:04:43;;;;;;;8.23;5.38;;;;;;;;;;5095083;28;20050;-73
2021/12/04 10:18:27;;;;;;;9.02;5.53;;;;;;;;;;5115400;28;20860;-67
2021/12/04 10:34:13;;;;;;;18.63;6.20;;;;;;;;;;5093818;28;20054;-67
2021/12/04 10:36:40;;;;;;;10.82;4.93;;;;;;;;;;5101301;28;20173;-67
2021/12/04 10:39:10;;;;;;;11.77;5.78;;;;;;;;;;5115178;28;20493;-67
2021/12/04 10:41:39;;;;;;;14.90;5.95;;;;;;;;;;5115359;28;20043;-67
2021/12/04 10:44:14;;;;;;;10.60;5.82;;;;;;;;;;5113242;28;20092;-66
2021/12/04 10:46:40;;;;;;;12.93;5.90;;;;;;;;;;5074249;28;20021;-66
2021/12/04 10:49:16;;;;;;;14.82;5.55;;;;;;;;;;5074280;28;20064;-66
2021/12/04 10:51:48;;;;;;;10.43;5.78;;;;;;;;;;5074874;28;20522;-67
2021/12/04 10:54:28;;;;;;;17.15;6.30;;;;;;;;;;5094320;28;20054;-67
2021/12/04 10:59:37;;;;;;;12.45;5.90;;;;;;;;;;5094398;28;20113;-67
2021/12/04 11:02:13;;;;;;;9.18;5.57;;;;;;;;;;5094557;28;20013;-67
2021/12/04 11:26:10;;;;;;;20.17;6.82;;;;;;;;;;5094028;28;20036;-68
2021/12/04 11:28:58;;;;;;;23.50;7.00;;;;;;;;;;5065797;28;20064;-80
2021/12/04 11:44:45;;;;;;;19.92;7.97;;;;;;;;;;5075089;28;20129;-66
2021/12/04 11:47:11;;;;;;;20.10;8.18;;;;;;;;;;5092994;28;20085;-66
2021/12/04 11:49:38;;;;;;;24.23;8.35;;;;;;;;;;5093424;28;20448;-66
2021/12/04 11:52:11;;;;;;;19.23;7.82;;;;;;;;;;5092365;28;20421;-66
2021/12/04 11:54:44;;;;;;;19.70;7.90;;;;;;;;;;5092529;28;20036;-66
2021/12/04 11:57:11;;;;;;;30.42;8.70;;;;;;;;;;5092344;28;20029;-66
2021/12/04 11:59:38;;;;;;;21.67;8.18;;;;;;;;;;5092179;28;20425;-66
2021/12/04 12:02:06;;;;;;;23.40;8.35;;;;;;;;;;5091473;28;20024;-66
2021/12/04 12:04:34;;;;;;;21.80;8.52;;;;;;;;;;5071413;28;20032;-65
2021/12/04 12:07:09;;;;;;;20.20;8.38;;;;;;;;;;5085935;28;20035;-67
2021/12/04 12:09:36;;;;;;;25.08;9.48;;;;;;;;;;5086619;28;20020;-66
2021/12/04 12:12:03;;;;;;;22.02;9.35;;;;;;;;;;5092585;28;20387;-66
2021/12/04 12:14:37;;;;;;;22.25;9.45;;;;;;;;;;5074926;28;20057;-66
2021/12/04 12:17:03;;;;;;;19.70;9.23;;;;;;;;;;5092704;28;20399;-66
2021/12/04 12:19:42;;;;;;;21.20;9.82;;;;;;;;;;5074762;28;20440;-68
2021/12/04 12:22:23;;;;;;;25.85;10.20;;;;;;;;;;5092596;28;20054;-66
2021/12/04 12:27:30;;;;;;;58.58;12.73;;;;;;;;;;5092038;28;20427;-65
2021/12/04 12:38:12;;;;;;;46.55;11.90;;;;;;;;;;5092450;28;20077;-67
2021/12/04 12:40:38;;;;;;;50.28;11.57;;;;;;;;;;5093013;28;20028;-65
2021/12/04 12:43:12;;;;;;;43.15;11.10;;;;;;;;;;5107005;28;20048;-65
2021/12/04 12:45:38;;;;;;;41.53;11.25;;;;;;;;;;5109673;28;20023;-65
2021/12/04 12:48:06;;;;;;;37.60;10.90;;;;;;;;;;5094701;28;20067;-65
2021/12/04 12:50:38;;;;;;;52.22;10.38;;;;;;;;;;5094158;28;20505;-65
2021/12/04 12:53:10;;;;;;;36.97;10.13;;;;;;;;;;5112839;28;20059;-65
2021/12/04 12:55:37;;;;;;;43.40;10.27;;;;;;;;;;5112662;28;20390;-66
2021/12/04 12:58:14;;;;;;;39.08;9.77;;;;;;;;;;5112237;28;20031;-66
2021/12/04 13:11:52;;;;;;;29.88;9.25;;;;;;;;;;5112956;28;20066;-67
2021/12/04 13:14:30;;;;;;;32.45;8.27;;;;;;;;;;5112180;28;20028;-66
2021/12/04 13:16:59;;;;;;;32.70;9.02;;;;;;;;;;5111908;28;20478;-66
2021/12/04 13:19:26;;;;;;;29.75;9.32;;;;;;;;;;5111665;28;20027;-65
2021/12/04 13:21:54;;;;;;;24.00;8.00;;;;;;;;;;5112747;28;20031;-67
2021/12/04 13:24:23;;;;;;;27.33;9.02;;;;;;;;;;5094353;28;20024;-66
2021/12/04 13:26:51;;;;;;;29.35;8.13;;;;;;;;;;5112631;28;20471;-65
2021/12/04 13:29:19;;;;;;;29.52;8.63;;;;;;;;;;5115396;28;20056;-64
2021/12/04 13:31:45;;;;;;;37.35;8.55;;;;;;;;;;5094507;28;20020;-68
2021/12/04 13:34:12;;;;;;;33.80;8.93;;;;;;;;;;5112430;28;20035;-68
2021/12/04 13:36:39;;;;;;;31.40;8.73;;;;;;;;;;5092811;28;20040;-67
2021/12/04 13:39:13;;;;;;;36.83;8.90;;;;;;;;;;5091083;28;20027;-65
2021/12/04 13:41:40;;;;;;;32.13;8.45;;;;;;;;;;5097209;28;20107;-67
2021/12/04 13:44:08;;;;;;;27.88;8.98;;;;;;;;;;5089091;28;20501;-64
2021/12/04 13:46:48;;;;;;;33.45;8.30;;;;;;;;;;5085474;28;20024;-65
2021/12/04 13:49:16;;;;;;;31.45;7.55;;;;;;;;;;5089833;28;20057;-63
2021/12/04 13:51:42;;;;;;;38.70;7.22;;;;;;;;;;5093980;28;20055;-64
2021/12/04 13:54:08;;;;;;;32.22;7.28;;;;;;;;;;5087542;28;20046;-64
2021/12/04 13:56:35;;;;;;;17.65;6.30;;;;;;;;;;5089246;28;20019;-64
2021/12/04 13:59:03;;;;;;;34.17;6.45;;;;;;;;;;5088551;28;20502;-64
2021/12/04 14:01:31;;;;;;;18.65;5.82;;;;;;;;;;5093219;28;20419;-65
2021/12/04 14:03:59;;;;;;;21.63;5.55;;;;;;;;;;5088995;28;20073;-63
2021/12/04 14:06:25;;;;;;;22.25;5.47;;;;;;;;;;5107238;28;20023;-65
2021/12/04 14:08:56;;;;;;;17.30;4.75;;;;;;;;;;5084674;28;20035;-63
2021/12/04 14:11:32;;;;;;;11.93;4.15;;;;;;;;;;5083129;28;20471;-64
2021/12/04 14:13:59;;;;;;;15.20;4.63;;;;;;;;;;5085490;28;20047;-64
2021/12/04 14:16:28;;;;;;;13.13;3.90;;;;;;;;;;5084532;28;20095;-64
2021/12/04 14:18:54;;;;;;;7.80;3.60;;;;;;;;;;5083326;28;20043;-64
2021/12/04 14:21:20;;;;;;;23.27;3.47;;;;;;;;;;5083200;28;20016;-65
2021/12/04 14:23:47;;;;;;;10.52;3.10;;;;;;;;;;5091456;28;20076;-63
2021/12/04 14:26:15;;;;;;;9.40;2.95;;;;;;;;;;5098219;28;20028;-64
2021/12/04 14:28:43;;;;;;;7.22;2.70;;;;;;;;;;5083160;28;20024;-64
2021/12/04 14:31:09;;;;;;;8.38;2.85;;;;;;;;;;5085357;28;20507;-64
2021/12/04 14:33:37;;;;;;;7.20;2.58;;;;;;;;;;5086628;28;20096;-64
2021/12/04 14:36:03;;;;;;;6.40;2.60;;;;;;;;;;5089800;28;20387;-63
2021/12/04 14:38:31;;;;;;;6.25;2.30;;;;;;;;;;5090063;28;20024;-65
2021/12/04 14:41:05;;;;;;;5.18;2.38;;;;;;;;;;5059696;28;20536;-64
2021/12/04 14:43:35;;;;;;;7.53;2.55;;;;;;;;;;5071087;28;20471;-64
2021/12/04 14:46:01;;;;;;;17.08;2.40;;;;;;;;;;5088957;28;20036;-64
2021/12/04 14:48:33;;;;;;;12.77;2.35;;;;;;;;;;5094176;28;20039;-63
2021/12/04 14:51:05;;;;;;;8.40;1.95;;;;;;;;;;5093061;28;20026;-63
2021/12/04 14:53:32;;;;;;;7.25;1.85;;;;;;;;;;5093126;28;20497;-63
2021/12/04 14:55:59;;;;;;;6.85;1.75;;;;;;;;;;5090996;28;20340;-63
2021/12/04 14:58:25;;;;;;;4.47;1.90;;;;;;;;;;5094299;28;20023;-63
2021/12/04 15:01:00;;;;;;;5.35;1.77;;;;;;;;;;5094781;28;20012;-63
2021/12/04 15:03:34;;;;;;;5.75;1.67;;;;;;;;;;5090755;28;20032;-64
2021/12/04 15:06:03;;;;;;;5.13;1.38;;;;;;;;;;5091614;28;20040;-65
2021/12/04 15:08:31;;;;;;;4.55;1.60;;;;;;;;;;5092844;28;20024;-64
2021/12/04 15:11:01;;;;;;;5.22;1.48;;;;;;;;;;5090652;28;20024;-64
2021/12/04 15:13:30;;;;;;;5.68;1.42;;;;;;;;;;5091741;28;20111;-64
2021/12/04 15:15:58;;;;;;;6.68;1.75;;;;;;;;;;5092789;28;20466;-64
2021/12/04 15:18:29;;;;;;;10.32;2.88;;;;;;;;;;5093157;28;20391;-64
2021/12/04 15:21:17;;;;;;;7.22;2.67;;;;;;;;;;5093429;28;20128;-63
2021/12/04 15:23:44;;;;;;;12.45;3.03;;;;;;;;;;5093129;28;20020;-64
2021/12/04 15:26:17;;;;;;;9.38;2.95;;;;;;;;;;5091332;28;20103;-64
2021/12/04 15:28:48;;;;;;;11.57;2.90;;;;;;;;;;5091782;28;20028;-64
2021/12/04 15:31:15;;;;;;;15.93;3.13;;;;;;;;;;5090794;28;20028;-67
2021/12/04 15:33:42;;;;;;;13.80;2.42;;;;;;;;;;5093902;28;20107;-67
2021/12/04 15:36:19;;;;;;;32.65;4.00;;;;;;;;;;5091112;28;20024;-66
2021/12/04 15:38:52;;;;;;;34.03;3.88;;;;;;;;;;5093433;28;20371;-65
2021/12/04 15:41:40;;;;;;;;;;;;;;;;;;5095245;28;20440;-65
2021/12/04 15:46:57;;;;;;;14.65;2.83;;;;;;;;;;5093843;28;20077;-67
2021/12/04 15:49:47;;;;;;;27.00;3.63;;;;;;;;;;5092614;28;20032;-64
2021/12/04 15:55:05;;;;;;;20.58;2.70;;;;;;;;;;5094097;28;20494;-63
2021/12/04 15:57:31;;;;;;;22.60;3.13;;;;;;;;;;5092850;28;20024;-63
2021/12/04 16:00:00;;;;;;;13.63;2.58;;;;;;;;;;5093238;28;20054;-65
2021/12/04 16:02:34;;;;;;;19.15;3.00;;;;;;;;;;5093733;28;20107;-65
2021/12/04 16:05:11;;;;;;;17.33;2.40;;;;;;;;;;5093876;28;20375;-65
2021/12/04 16:07:38;;;;;;;9.68;2.38;;;;;;;;;;5094068;28;20024;-65
2021/12/04 16:10:09;;;;;;;10.75;2.88;;;;;;;;;;5093856;28;20027;-65
2021/12/04 16:12:37;;;;;;;9.80;2.08;;;;;;;;;;5093461;28;20024;-64
2021/12/04 16:15:03;;;;;;;11.80;2.13;;;;;;;;;;5070240;28;20025;-64
2021/12/04 16:17:29;;;;;;;9.10;1.90;;;;;;;;;;5092643;28;20016;-64
2021/12/04 16:20:07;;;;;;;13.88;2.03;;;;;;;;;;5092653;28;20350;-64
2021/12/04 16:22:39;;;;;;;11.93;2.20;;;;;;;;;;5091979;28;20024;-64
2021/12/04 16:25:08;;;;;;;8.93;2.03;;;;;;;;;;5092532;28;20069;-65
2021/12/04 16:27:45;;;;;;;9.35;1.70;;;;;;;;;;5076862;28;20024;-67
2021/12/04 16:38:01;;;;;;;7.50;1.80;;;;;;;;;;5091689;28;20043;-69
2021/12/04 16:40:30;;;;;;;7.82;1.83;;;;;;;;;;5068523;28;20039;-64
2021/12/04 16:43:03;;;;;;;11.25;1.85;;;;;;;;;;5102377;28;20146;-64
2021/12/04 16:45:30;;;;;;;17.17;1.90;;;;;;;;;;5094057;28;20102;-65
2021/12/04 16:47:59;;;;;;;12.27;2.00;;;;;;;;;;5111845;28;20112;-64
2021/12/04 16:50:29;;;;;;;8.75;1.60;;;;;;;;;;5112532;28;20019;-64
2021/12/04 16:55:47;;;;;;;14.23;1.70;;;;;;;;;;5105233;28;20068;-64
2021/12/04 16:58:13;;;;;;;9.52;1.60;;;;;;;;;;5107394;28;20048;-65
2021/12/04 17:00:41;;;;;;;11.07;1.67;;;;;;;;;;5112474;28;20016;-64
2021/12/04 17:03:07;;;;;;;13.20;1.60;;;;;;;;;;5093945;28;20722;-64
2021/12/04 17:05:33;;;;;;;16.67;1.80;;;;;;;;;;5112742;28;20095;-65
2021/12/04 17:08:00;;;;;;;7.15;1.33;;;;;;;;;;5092872;28;20039;-64
2021/12/04 17:10:26;;;;;;;5.85;1.77;;;;;;;;;;5111981;28;20043;-64
2021/12/04 17:12:53;;;;;;;4.95;1.50;;;;;;;;;;5107081;28;20469;-65
2021/12/04 17:15:19;;;;;;;6.32;1.60;;;;;;;;;;5094366;28;20024;-64
2021/12/04 17:17:47;;;;;;;7.93;1.60;;;;;;;;;;5094509;28;20030;-64
2021/12/04 17:20:15;;;;;;;10.98;1.20;;;;;;;;;;5112777;28;20111;-65
2021/12/04 17:22:41;;;;;;;3.40;1.20;;;;;;;;;;5112439;28;20024;-65
2021/12/04 17:25:08;;;;;;;7.22;1.42;;;;;;;;;;5112469;28;20526;-63
2021/12/04 17:27:34;;;;;;;8.52;1.65;;;;;;;;;;5112206;28;20516;-64
2021/12/04 17:30:02;;;;;;;6.18;1.33;;;;;;;;;;5112549;28;20024;-63
2021/12/04 17:32:29;;;;;;;5.63;1.20;;;;;;;;;;5112050;28;20032;-63
2021/12/04 17:34:56;;;;;;;6.45;1.40;;;;;;;;;;5112592;28;20395;-63
2021/12/04 17:37:23;;;;;;;6.65;1.42;;;;;;;;;;5112754;28;20020;-63
2021/12/04 17:39:52;;;;;;;4.93;1.13;;;;;;;;;;5097305;28;20027;-64
2021/12/04 17:42:18;;;;;;;4.95;1.50;;;;;;;;;;5106884;28;20533;-66
2021/12/04 17:44:44;;;;;;;4.18;1.25;;;;;;;;;;5096151;28;20024;-64
2021/12/04 17:47:10;;;;;;;6.13;1.30;;;;;;;;;;5091467;28;20635;-64
2021/12/04 17:49:36;;;;;;;5.22;1.33;;;;;;;;;;5075744;28;20077;-64
2021/12/04 17:52:04;;;;;;;4.30;1.20;;;;;;;;;;5111871;28;20035;-63
2021/12/04 17:54:31;;;;;;;3.97;1.13;;;;;;;;;;5116510;28;20036;-64
2021/12/04 17:56:57;;;;;;;2.45;1.08;;;;;;;;;;5115940;28;20046;-63
2021/12/04 17:59:25;;;;;;;5.28;1.10;;;;;;;;;;5089664;28;20025;-63
2021/12/04 18:01:57;;;;;;;6.88;1.13;;;;;;;;;;5100816;28;20102;-63